sensor_id;sensor_type;location;lat;lon;timestamp;pressure;altitude;pressure_sealevel;temperature;humidity
70009;BME280;59542;37.950;-122.338;2023-04-01T00:01:11;102191.41;;;17.47;35.48
70009;BME280;59542;37.950;-122.338;2023-04-01T00:03:39;102198.16;;;17.31;35.68
70009;BME280;59542;37.950;-122.338;2023-04-01T00:06:06;102197.66;;;17.09;37.18
70009;BME280;59542;37.950;-122.338;2023-04-01T00:08:32;102200.34;;;17.15;38.47
70009;BME280;59542;37.950;-122.338;2023-04-01T00:10:59;102180.16;;;17.18;38.92
70009;BME280;59542;37.950;-122.338;2023-04-01T00:13:26;102186.84;;;17.09;37.46
70009;BME280;59542;37.950;-122.338;2023-04-01T00:15:54;102191.69;;;17.00;38.01
70009;BME280;59542;37.950;-122.338;2023-04-01T00:18:20;102187.06;;;17.07;37.22
70009;BME280;59542;37.950;-122.338;2023-04-01T00:20:48;102182.38;;;16.89;36.45
70009;BME280;59542;37.950;-122.338;2023-04-01T00:23:16;102190.13;;;16.79;36.86
70009;BME280;59542;37.950;-122.338;2023-04-01T00:25:44;102186.81;;;16.71;37.07
70009;BME280;59542;37.950;-122.338;2023-04-01T00:28:12;102195.78;;;16.71;37.45
70009;BME280;59542;37.950;-122.338;2023-04-01T00:30:39;102191.78;;;16.80;37.38
70009;BME280;59542;37.950;-122.338;2023-04-01T00:33:05;102194.28;;;16.69;37.52
70009;BME280;59542;37.950;-122.338;2023-04-01T00:35:31;102195.13;;;16.69;37.64
70009;BME280;59542;37.950;-122.338;2023-04-01T00:37:58;102187.69;;;16.51;37.48
70009;BME280;59542;37.950;-122.338;2023-04-01T00:42:54;102195.25;;;16.09;39.39
70009;BME280;59542;37.950;-122.338;2023-04-01T00:45:37;102193.41;;;15.90;39.99
70009;BME280;59542;37.950;-122.338;2023-04-01T00:48:18;102194.03;;;15.79;41.82
70009;BME280;59542;37.950;-122.338;2023-04-01T00:51:13;102188.03;;;15.77;42.57
70009;BME280;59542;37.950;-122.338;2023-04-01T00:53:43;102184.88;;;15.87;42.83
70009;BME280;59542;37.950;-122.338;2023-04-01T00:56:22;102188.59;;;15.59;41.06
70009;BME280;59542;37.950;-122.338;2023-04-01T00:58:56;102185.47;;;15.55;41.53
70009;BME280;59542;37.950;-122.338;2023-04-01T01:01:24;102186.91;;;15.38;41.21
70009;BME280;59542;37.950;-122.338;2023-04-01T01:03:51;102196.84;;;15.24;41.92
70009;BME280;59542;37.950;-122.338;2023-04-01T01:06:38;102185.66;;;15.41;41.51
70009;BME280;59542;37.950;-122.338;2023-04-01T01:12:14;102196.81;;;15.18;41.50
70009;BME280;59542;37.950;-122.338;2023-04-01T01:36:37;102213.03;;;14.76;46.76
70009;BME280;59542;37.950;-122.338;2023-04-01T01:39:05;102212.91;;;14.91;47.55
70009;BME280;59542;37.950;-122.338;2023-04-01T01:41:35;102204.53;;;14.73;47.58
70009;BME280;59542;37.950;-122.338;2023-04-01T01:44:04;102204.94;;;14.70;47.24
70009;BME280;59542;37.950;-122.338;2023-04-01T01:46:33;102208.63;;;14.62;48.08
70009;BME280;59542;37.950;-122.338;2023-04-01T01:49:00;102213.47;;;14.45;48.50
70009;BME280;59542;37.950;-122.338;2023-04-01T01:51:28;102216.44;;;14.50;48.43
70009;BME280;59542;37.950;-122.338;2023-04-01T01:53:54;102227.16;;;14.44;49.43
70009;BME280;59542;37.950;-122.338;2023-04-01T01:56:23;102211.97;;;14.36;50.10
70009;BME280;59542;37.950;-122.338;2023-04-01T01:58:56;102204.00;;;14.49;49.98
70009;BME280;59542;37.950;-122.338;2023-04-01T02:01:28;102208.91;;;14.46;50.31
70009;BME280;59542;37.950;-122.338;2023-04-01T02:03:57;102213.69;;;14.44;50.63
70009;BME280;59542;37.950;-122.338;2023-04-01T02:06:28;102199.19;;;14.45;50.24
70009;BME280;59542;37.950;-122.338;2023-04-01T02:09:01;102199.75;;;14.34;51.06
70009;BME280;59542;37.950;-122.338;2023-04-01T02:11:49;102191.75;;;14.47;50.73
70009;BME280;59542;37.950;-122.338;2023-04-01T02:14:29;102188.09;;;13.98;51.64
70009;BME280;59542;37.950;-122.338;2023-04-01T02:17:08;102195.88;;;14.15;51.03
70009;BME280;59542;37.950;-122.338;2023-04-01T02:19:39;102192.28;;;13.80;49.65
70009;BME280;59542;37.950;-122.338;2023-04-01T02:22:11;102196.53;;;13.46;49.69
70009;BME280;59542;37.950;-122.338;2023-04-01T02:24:40;102195.31;;;13.12;49.65
70009;BME280;59542;37.950;-122.338;2023-04-01T02:27:09;102195.34;;;12.98;50.37
70009;BME280;59542;37.950;-122.338;2023-04-01T02:29:36;102195.88;;;13.08;50.59
70009;BME280;59542;37.950;-122.338;2023-04-01T02:32:03;102196.09;;;12.91;49.52
70009;BME280;59542;37.950;-122.338;2023-04-01T02:34:31;102196.78;;;12.64;50.20
70009;BME280;59542;37.950;-122.338;2023-04-01T02:36:58;102198.72;;;12.70;50.09
70009;BME280;59542;37.950;-122.338;2023-04-01T02:39:25;102194.50;;;12.61;49.97
70009;BME280;59542;37.950;-122.338;2023-04-01T02:41:52;102192.72;;;12.68;50.35
70009;BME280;59542;37.950;-122.338;2023-04-01T02:44:18;102198.91;;;12.54;51.14
70009;BME280;59542;37.950;-122.338;2023-04-01T02:46:44;102204.13;;;12.55;51.00
70009;BME280;59542;37.950;-122.338;2023-04-01T02:49:11;102205.59;;;12.43;52.14
70009;BME280;59542;37.950;-122.338;2023-04-01T02:51:38;102199.03;;;12.46;51.78
70009;BME280;59542;37.950;-122.338;2023-04-01T02:54:04;102203.47;;;12.53;50.92
70009;BME280;59542;37.950;-122.338;2023-04-01T02:56:30;102204.59;;;12.44;50.76
70009;BME280;59542;37.950;-122.338;2023-04-01T02:58:57;102201.34;;;12.63;49.86
70009;BME280;59542;37.950;-122.338;2023-04-01T03:01:23;102204.13;;;12.40;50.75
70009;BME280;59542;37.950;-122.338;2023-04-01T03:03:49;102201.53;;;12.47;50.30
70009;BME280;59542;37.950;-122.338;2023-04-01T03:06:16;102210.44;;;12.33;50.92
70009;BME280;59542;37.950;-122.338;2023-04-01T03:08:43;102214.94;;;12.32;50.86
70009;BME280;59542;37.950;-122.338;2023-04-01T03:11:10;102217.72;;;12.24;51.28
70009;BME280;59542;37.950;-122.338;2023-04-01T03:13:37;102215.91;;;12.02;52.44
70009;BME280;59542;37.950;-122.338;2023-04-01T03:16:03;102219.25;;;12.04;52.20
70009;BME280;59542;37.950;-122.338;2023-04-01T03:18:30;102216.94;;;12.01;52.45
70009;BME280;59542;37.950;-122.338;2023-04-01T03:20:56;102225.72;;;11.72;53.09
70009;BME280;59542;37.950;-122.338;2023-04-01T03:23:23;102229.09;;;11.66;53.65
70009;BME280;59542;37.950;-122.338;2023-04-01T03:25:50;102240.06;;;11.56;54.49
70009;BME280;59542;37.950;-122.338;2023-04-01T03:28:16;102244.16;;;11.44;55.24
70009;BME280;59542;37.950;-122.338;2023-04-01T03:30:42;102255.28;;;11.32;55.98
70009;BME280;59542;37.950;-122.338;2023-04-01T03:33:09;102258.88;;;11.48;56.01
70009;BME280;59542;37.950;-122.338;2023-04-01T03:35:35;102255.38;;;11.47;56.21
70009;BME280;59542;37.950;-122.338;2023-04-01T03:38:02;102263.13;;;11.11;57.38
70009;BME280;59542;37.950;-122.338;2023-04-01T03:40:29;102252.00;;;11.22;57.33
70009;BME280;59542;37.950;-122.338;2023-04-01T03:42:55;102261.91;;;11.14;57.80
70009;BME280;59542;37.950;-122.338;2023-04-01T03:45:22;102257.13;;;11.01;58.33
70009;BME280;59542;37.950;-122.338;2023-04-01T03:47:48;102266.53;;;10.97;58.57
70009;BME280;59542;37.950;-122.338;2023-04-01T03:50:14;102265.13;;;11.09;57.77
70009;BME280;59542;37.950;-122.338;2023-04-01T03:52:40;102259.13;;;11.07;57.52
70009;BME280;59542;37.950;-122.338;2023-04-01T03:55:07;102261.09;;;11.13;57.33
70009;BME280;59542;37.950;-122.338;2023-04-01T03:57:33;102259.13;;;11.07;57.40
70009;BME280;59542;37.950;-122.338;2023-04-01T04:00:00;102261.66;;;11.00;57.78
70009;BME280;59542;37.950;-122.338;2023-04-01T04:02:26;102258.41;;;11.13;58.09
70009;BME280;59542;37.950;-122.338;2023-04-01T04:04:52;102255.59;;;11.06;58.41
70009;BME280;59542;37.950;-122.338;2023-04-01T04:07:18;102252.91;;;11.06;58.30
70009;BME280;59542;37.950;-122.338;2023-04-01T04:09:44;102246.38;;;11.09;58.44
70009;BME280;59542;37.950;-122.338;2023-04-01T04:12:11;102255.41;;;11.08;58.46
70009;BME280;59542;37.950;-122.338;2023-04-01T04:14:37;102258.34;;;11.29;57.14
70009;BME280;59542;37.950;-122.338;2023-04-01T04:17:03;102256.66;;;11.28;56.57
70009;BME280;59542;37.950;-122.338;2023-04-01T04:19:32;102260.25;;;10.73;58.27
70009;BME280;59542;37.950;-122.338;2023-04-01T04:22:01;102263.19;;;10.95;57.95
70009;BME280;59542;37.950;-122.338;2023-04-01T04:24:28;102264.84;;;10.96;58.22
70009;BME280;59542;37.950;-122.338;2023-04-01T04:26:54;102265.19;;;10.93;58.24
70009;BME280;59542;37.950;-122.338;2023-04-01T04:29:20;102260.19;;;10.90;58.22
70009;BME280;59542;37.950;-122.338;2023-04-01T04:31:48;102267.22;;;10.91;58.10
70009;BME280;59542;37.950;-122.338;2023-04-01T04:34:14;102272.56;;;10.91;58.26
70009;BME280;59542;37.950;-122.338;2023-04-01T04:36:41;102272.25;;;10.86;58.44
70009;BME280;59542;37.950;-122.338;2023-04-01T04:39:07;102273.28;;;10.84;58.61
70009;BME280;59542;37.950;-122.338;2023-04-01T04:41:33;102272.44;;;10.76;58.73
70009;BME280;59542;37.950;-122.338;2023-04-01T04:43:59;102272.00;;;10.56;59.10
70009;BME280;59542;37.950;-122.338;2023-04-01T04:46:26;102275.84;;;10.53;59.19
70009;BME280;59542;37.950;-122.338;2023-04-01T04:48:52;102280.19;;;10.54;59.27
70009;BME280;59542;37.950;-122.338;2023-04-01T04:51:19;102279.22;;;10.31;60.60
70009;BME280;59542;37.950;-122.338;2023-04-01T04:53:47;102277.91;;;10.35;60.65
70009;BME280;59542;37.950;-122.338;2023-04-01T04:56:20;102283.75;;;10.39;60.50
70009;BME280;59542;37.950;-122.338;2023-04-01T04:58:47;102279.41;;;10.29;61.10
70009;BME280;59542;37.950;-122.338;2023-04-01T05:01:15;102291.63;;;10.24;61.29
70009;BME280;59542;37.950;-122.338;2023-04-01T05:03:42;102293.13;;;10.26;61.54
70009;BME280;59542;37.950;-122.338;2023-04-01T05:06:09;102287.56;;;10.03;62.47
70009;BME280;59542;37.950;-122.338;2023-04-01T05:08:36;102295.22;;;9.66;63.73
70009;BME280;59542;37.950;-122.338;2023-04-01T05:11:07;102292.28;;;9.26;65.77
70009;BME280;59542;37.950;-122.338;2023-04-01T05:13:37;102291.63;;;9.24;65.52
70009;BME280;59542;37.950;-122.338;2023-04-01T05:16:10;102294.63;;;9.30;65.33
70009;BME280;59542;37.950;-122.338;2023-04-01T05:18:37;102296.88;;;9.00;66.43
70009;BME280;59542;37.950;-122.338;2023-04-01T05:21:04;102299.41;;;8.32;69.00
70009;BME280;59542;37.950;-122.338;2023-04-01T05:23:31;102306.41;;;8.77;67.24
70009;BME280;59542;37.950;-122.338;2023-04-01T05:26:02;102306.72;;;8.99;66.08
70009;BME280;59542;37.950;-122.338;2023-04-01T05:28:29;102311.09;;;9.09;65.76
70009;BME280;59542;37.950;-122.338;2023-04-01T05:30:58;102310.31;;;9.16;65.43
70009;BME280;59542;37.950;-122.338;2023-04-01T05:33:26;102308.78;;;9.14;65.20
70009;BME280;59542;37.950;-122.338;2023-04-01T05:35:52;102309.78;;;9.13;65.11
70009;BME280;59542;37.950;-122.338;2023-04-01T05:38:19;102301.59;;;9.14;65.11
70009;BME280;59542;37.950;-122.338;2023-04-01T05:40:45;102302.59;;;9.13;65.08
70009;BME280;59542;37.950;-122.338;2023-04-01T05:43:12;102305.84;;;8.99;65.71
70009;BME280;59542;37.950;-122.338;2023-04-01T05:45:38;102303.50;;;8.00;69.51
70009;BME280;59542;37.950;-122.338;2023-04-01T05:48:05;102296.94;;;7.77;71.30
70009;BME280;59542;37.950;-122.338;2023-04-01T05:50:31;102294.28;;;7.94;70.42
70009;BME280;59542;37.950;-122.338;2023-04-01T05:52:57;102299.53;;;8.04;70.09
70009;BME280;59542;37.950;-122.338;2023-04-01T05:55:24;102300.59;;;7.76;71.38
70009;BME280;59542;37.950;-122.338;2023-04-01T05:57:50;102292.75;;;7.74;71.59
70009;BME280;59542;37.950;-122.338;2023-04-01T06:00:17;102296.34;;;8.01;70.26
70009;BME280;59542;37.950;-122.338;2023-04-01T06:02:45;102301.88;;;8.25;69.16
70009;BME280;59542;37.950;-122.338;2023-04-01T06:05:19;102301.72;;;8.44;68.58
70009;BME280;59542;37.950;-122.338;2023-04-01T06:07:45;102300.25;;;7.43;72.18
70009;BME280;59542;37.950;-122.338;2023-04-01T06:10:20;102299.00;;;7.65;71.67
70009;BME280;59542;37.950;-122.338;2023-04-01T06:15:40;102291.47;;;7.96;70.25
70009;BME280;59542;37.950;-122.338;2023-04-01T06:32:48;102291.53;;;8.04;69.49
70009;BME280;59542;37.950;-122.338;2023-04-01T06:40:02;102298.25;;;7.73;70.30
70009;BME280;59542;37.950;-122.338;2023-04-01T06:50:40;102307.38;;;6.50;75.03
70009;BME280;59542;37.950;-122.338;2023-04-01T06:53:21;102300.25;;;6.22;76.65
70009;BME280;59542;37.950;-122.338;2023-04-01T06:56:11;102296.50;;;6.24;76.86
70009;BME280;59542;37.950;-122.338;2023-04-01T06:58:44;102308.41;;;6.77;74.79
70009;BME280;59542;37.950;-122.338;2023-04-01T07:01:25;102304.16;;;6.37;76.44
70009;BME280;59542;37.950;-122.338;2023-04-01T07:04:12;102302.66;;;6.15;77.23
70009;BME280;59542;37.950;-122.338;2023-04-01T07:06:50;102304.34;;;6.06;77.63
70009;BME280;59542;37.950;-122.338;2023-04-01T07:09:37;102306.84;;;5.89;78.56
70009;BME280;59542;37.950;-122.338;2023-04-01T07:12:32;102300.41;;;6.11;77.51
70009;BME280;59542;37.950;-122.338;2023-04-01T07:15:24;102306.41;;;6.42;76.25
70009;BME280;59542;37.950;-122.338;2023-04-01T07:17:57;102313.44;;;6.14;76.93
70009;BME280;59542;37.950;-122.338;2023-04-01T07:20:30;102315.19;;;5.65;79.04
70009;BME280;59542;37.950;-122.338;2023-04-01T07:23:00;102319.63;;;5.54;79.73
70009;BME280;59542;37.950;-122.338;2023-04-01T07:25:48;102311.66;;;5.54;79.77
70009;BME280;59542;37.950;-122.338;2023-04-01T07:28:17;102307.03;;;5.37;80.69
70009;BME280;59542;37.950;-122.338;2023-04-01T07:36:48;102309.78;;;5.26;81.18
70009;BME280;59542;37.950;-122.338;2023-04-01T07:48:22;102310.38;;;4.99;82.21
70009;BME280;59542;37.950;-122.338;2023-04-01T08:01:21;102304.09;;;4.90;82.65
70009;BME280;59542;37.950;-122.338;2023-04-01T08:06:28;102301.44;;;4.90;83.26
70009;BME280;59542;37.950;-122.338;2023-04-01T08:12:00;102298.66;;;4.71;83.49
70009;BME280;59542;37.950;-122.338;2023-04-01T08:17:28;102301.88;;;5.05;81.97
70009;BME280;59542;37.950;-122.338;2023-04-01T08:20:14;102305.81;;;5.11;81.88
70009;BME280;59542;37.950;-122.338;2023-04-01T08:22:53;102299.53;;;5.02;82.42
70009;BME280;59542;37.950;-122.338;2023-04-01T08:25:26;102293.63;;;4.98;82.04
70009;BME280;59542;37.950;-122.338;2023-04-01T08:28:03;102290.72;;;4.71;83.47
70009;BME280;59542;37.950;-122.338;2023-04-01T08:30:43;102289.44;;;4.65;83.79
70009;BME280;59542;37.950;-122.338;2023-04-01T08:36:02;102275.28;;;4.86;83.46
70009;BME280;59542;37.950;-122.338;2023-04-01T08:41:37;102285.13;;;5.04;81.82
70009;BME280;59542;37.950;-122.338;2023-04-01T08:50:19;102279.22;;;5.41;80.36
70009;BME280;59542;37.950;-122.338;2023-04-01T08:56:47;102269.91;;;5.76;78.02
70009;BME280;59542;37.950;-122.338;2023-04-01T09:21:32;102260.94;;;4.58;82.26
70009;BME280;59542;37.950;-122.338;2023-04-01T09:35:10;102293.53;;;4.48;83.22
70009;BME280;59542;37.950;-122.338;2023-04-01T09:40:17;102285.69;;;4.68;82.07
70009;BME280;59542;37.950;-122.338;2023-04-01T09:48:15;102278.78;;;4.86;81.38
70009;BME280;59542;37.950;-122.338;2023-04-01T09:53:48;102275.34;;;4.65;82.11
70009;BME280;59542;37.950;-122.338;2023-04-01T10:05:21;102273.50;;;4.56;82.79
70009;BME280;59542;37.950;-122.338;2023-04-01T11:07:39;102211.78;;;4.23;84.88
70009;BME280;59542;37.950;-122.338;2023-04-01T11:10:29;102203.09;;;4.21;84.60
70009;BME280;59542;37.950;-122.338;2023-04-01T11:33:31;102211.31;;;4.18;84.95
70009;BME280;59542;37.950;-122.338;2023-04-01T11:39:03;102208.22;;;4.13;85.36
70009;BME280;59542;37.950;-122.338;2023-04-01T11:44:27;102199.31;;;4.75;82.50
70009;BME280;59542;37.950;-122.338;2023-04-01T11:57:51;102198.91;;;3.97;86.38
70009;BME280;59542;37.950;-122.338;2023-04-01T12:22:00;102197.09;;;3.77;87.55
70009;BME280;59542;37.950;-122.338;2023-04-01T12:38:51;102194.72;;;3.74;87.32
70009;BME280;59542;37.950;-122.338;2023-04-01T12:41:39;102189.03;;;4.00;86.31
70009;BME280;59542;37.950;-122.338;2023-04-01T12:47:05;102191.84;;;3.66;87.81
70009;BME280;59542;37.950;-122.338;2023-04-01T12:49:51;102197.28;;;3.64;87.72
70009;BME280;59542;37.950;-122.338;2023-04-01T12:52:44;102205.28;;;3.53;88.65
70009;BME280;59542;37.950;-122.338;2023-04-01T12:55:25;102202.25;;;3.58;88.68
70009;BME280;59542;37.950;-122.338;2023-04-01T13:26:25;102231.41;;;3.47;88.33
70009;BME280;59542;37.950;-122.338;2023-04-01T13:32:42;102237.38;;;3.60;88.35
70009;BME280;59542;37.950;-122.338;2023-04-01T13:43:16;102246.09;;;4.24;84.81
70009;BME280;59542;37.950;-122.338;2023-04-01T13:46:46;102251.56;;;4.33;84.05
70009;BME280;59542;37.950;-122.338;2023-04-01T13:49:07;102254.66;;;4.38;83.29
70009;BME280;59542;37.950;-122.338;2023-04-01T14:16:43;102236.53;;;3.91;85.71
70009;BME280;59542;37.950;-122.338;2023-04-01T14:30:50;102243.59;;;4.54;83.48
70009;BME280;59542;37.950;-122.338;2023-04-01T14:33:51;102252.66;;;4.82;82.98
70009;BME280;59542;37.950;-122.338;2023-04-01T14:45:20;102274.50;;;5.04;82.94
70009;BME280;59542;37.950;-122.338;2023-04-01T14:50:46;102256.56;;;5.18;83.32
70009;BME280;59542;37.950;-122.338;2023-04-01T14:53:35;102261.75;;;5.29;83.15
70009;BME280;59542;37.950;-122.338;2023-04-01T14:56:04;102257.66;;;5.15;83.91
70009;BME280;59542;37.950;-122.338;2023-04-01T14:58:46;102265.69;;;5.44;83.15
70009;BME280;59542;37.950;-122.338;2023-04-01T15:18:18;102273.50;;;6.43;82.50
70009;BME280;59542;37.950;-122.338;2023-04-01T15:24:22;102268.56;;;6.95;83.37
70009;BME280;59542;37.950;-122.338;2023-04-01T15:38:31;102276.00;;;8.00;85.36
70009;BME280;59542;37.950;-122.338;2023-04-01T15:41:24;102268.41;;;8.31;84.27
70009;BME280;59542;37.950;-122.338;2023-04-01T15:43:55;102267.03;;;8.44;84.95
70009;BME280;59542;37.950;-122.338;2023-04-01T15:46:30;102265.81;;;8.65;84.47
70009;BME280;59542;37.950;-122.338;2023-04-01T15:49:24;102264.53;;;8.77;84.63
70009;BME280;59542;37.950;-122.338;2023-04-01T15:55:20;102259.88;;;9.21;82.93
70009;BME280;59542;37.950;-122.338;2023-04-01T16:06:52;102273.03;;;9.90;79.25
70009;BME280;59542;37.950;-122.338;2023-04-01T16:12:34;102271.88;;;10.41;77.97
70009;BME280;59542;37.950;-122.338;2023-04-01T16:18:08;102274.09;;;10.77;74.71
70009;BME280;59542;37.950;-122.338;2023-04-01T16:23:30;102288.28;;;10.94;74.93
70009;BME280;59542;37.950;-122.338;2023-04-01T16:26:15;102283.16;;;11.23;72.86
70009;BME280;59542;37.950;-122.338;2023-04-01T16:28:57;102293.09;;;11.46;72.03
70009;BME280;59542;37.950;-122.338;2023-04-01T16:31:34;102303.41;;;11.57;70.65
70009;BME280;59542;37.950;-122.338;2023-04-01T16:34:09;102304.91;;;11.59;70.62
70009;BME280;59542;37.950;-122.338;2023-04-01T16:36:51;102305.88;;;11.67;69.92
70009;BME280;59542;37.950;-122.338;2023-04-01T16:42:38;102305.88;;;12.35;67.67
70009;BME280;59542;37.950;-122.338;2023-04-01T16:47:56;102304.06;;;12.51;65.47
70009;BME280;59542;37.950;-122.338;2023-04-01T16:50:43;102313.22;;;12.71;65.19
70009;BME280;59542;37.950;-122.338;2023-04-01T17:04:27;102307.44;;;13.84;58.89
70009;BME280;59542;37.950;-122.338;2023-04-01T17:07:10;102302.19;;;13.97;60.79
70009;BME280;59542;37.950;-122.338;2023-04-01T17:15:18;102295.78;;;13.77;57.00
70009;BME280;59542;37.950;-122.338;2023-04-01T17:18:02;102305.13;;;14.03;56.56
70009;BME280;59542;37.950;-122.338;2023-04-01T17:26:01;102299.78;;;14.09;57.16
70009;BME280;59542;37.950;-122.338;2023-04-01T17:39:49;102305.84;;;14.61;54.33
70009;BME280;59542;37.950;-122.338;2023-04-01T17:45:21;102312.13;;;14.74;53.71
70009;BME280;59542;37.950;-122.338;2023-04-01T18:05:15;102299.50;;;15.71;50.64
70009;BME280;59542;37.950;-122.338;2023-04-01T18:17:19;102294.56;;;16.47;49.80
70009;BME280;59542;37.950;-122.338;2023-04-01T18:28:18;102301.50;;;17.14;46.99
70009;BME280;59542;37.950;-122.338;2023-04-01T18:31:08;102296.47;;;17.25;46.21
70009;BME280;59542;37.950;-122.338;2023-04-01T18:36:53;102294.53;;;17.38;47.87
70009;BME280;59542;37.950;-122.338;2023-04-01T18:39:40;102287.06;;;17.65;46.82
70009;BME280;59542;37.950;-122.338;2023-04-01T18:42:36;102281.56;;;17.85;46.63
70009;BME280;59542;37.950;-122.338;2023-04-01T18:45:49;102288.75;;;17.98;46.92
70009;BME280;59542;37.950;-122.338;2023-04-01T18:48:42;102280.53;;;18.11;45.83
70009;BME280;59542;37.950;-122.338;2023-04-01T18:56:38;102271.88;;;18.46;45.00
70009;BME280;59542;37.950;-122.338;2023-04-01T19:10:01;102287.88;;;18.04;45.74
70009;BME280;59542;37.950;-122.338;2023-04-01T19:20:53;102282.41;;;18.36;46.33
70009;BME280;59542;37.950;-122.338;2023-04-01T19:26:34;102276.72;;;17.94;45.51
70009;BME280;59542;37.950;-122.338;2023-04-01T19:29:06;102272.63;;;18.10;44.85
70009;BME280;59542;37.950;-122.338;2023-04-01T19:36:57;102270.66;;;18.85;44.81
70009;BME280;59542;37.950;-122.338;2023-04-01T19:45:06;102263.41;;;18.17;44.67
70009;BME280;59542;37.950;-122.338;2023-04-01T19:47:45;102262.09;;;18.45;46.51
70009;BME280;59542;37.950;-122.338;2023-04-01T19:50:44;102268.41;;;18.14;44.41
70009;BME280;59542;37.950;-122.338;2023-04-01T19:53:24;102255.78;;;18.26;44.85
70009;BME280;59542;37.950;-122.338;2023-04-01T19:55:57;102262.56;;;17.92;44.92
70009;BME280;59542;37.950;-122.338;2023-04-01T20:01:08;102268.25;;;18.95;45.91
70009;BME280;59542;37.950;-122.338;2023-04-01T20:04:04;102256.66;;;18.88;44.60
70009;BME280;59542;37.950;-122.338;2023-04-01T20:12:50;102259.16;;;18.71;44.35
70009;BME280;59542;37.950;-122.338;2023-04-01T20:18:19;102255.09;;;19.29;44.90
70009;BME280;59542;37.950;-122.338;2023-04-01T20:21:00;102252.88;;;19.38;44.20
70009;BME280;59542;37.950;-122.338;2023-04-01T20:26:11;102245.59;;;19.50;43.82
70009;BME280;59542;37.950;-122.338;2023-04-01T20:31:43;102231.53;;;19.71;43.19
70009;BME280;59542;37.950;-122.338;2023-04-01T20:42:22;102231.22;;;19.01;41.93
70009;BME280;59542;37.950;-122.338;2023-04-01T20:50:34;102216.34;;;19.22;43.77
70009;BME280;59542;37.950;-122.338;2023-04-01T21:03:45;102199.97;;;19.82;42.88
70009;BME280;59542;37.950;-122.338;2023-04-01T21:07:15;102201.22;;;19.56;41.93
70009;BME280;59542;37.950;-122.338;2023-04-01T21:14:39;102187.16;;;18.87;43.90
70009;BME280;59542;37.950;-122.338;2023-04-01T21:19:54;102183.47;;;19.42;44.81
70009;BME280;59542;37.950;-122.338;2023-04-01T21:25:26;102177.59;;;18.85;44.13
70009;BME280;59542;37.950;-122.338;2023-04-01T21:28:20;102173.25;;;19.25;44.44
70009;BME280;59542;37.950;-122.338;2023-04-01T21:36:47;102167.03;;;19.78;43.92
70009;BME280;59542;37.950;-122.338;2023-04-01T21:47:35;102163.63;;;18.99;43.40
70009;BME280;59542;37.950;-122.338;2023-04-01T22:04:56;102146.03;;;19.32;45.11
70009;BME280;59542;37.950;-122.338;2023-04-01T22:07:35;102133.88;;;19.35;44.42
70009;BME280;59542;37.950;-122.338;2023-04-01T22:10:05;102138.78;;;19.14;41.78
70009;BME280;59542;37.950;-122.338;2023-04-01T22:15:31;102128.56;;;19.40;43.43
70009;BME280;59542;37.950;-122.338;2023-04-01T22:18:27;102125.06;;;19.51;43.55
70009;BME280;59542;37.950;-122.338;2023-04-01T22:21:03;102126.94;;;19.39;41.33
70009;BME280;59542;37.950;-122.338;2023-04-01T22:31:15;102118.09;;;19.43;42.77
70009;BME280;59542;37.950;-122.338;2023-04-01T22:34:01;102109.53;;;19.16;45.00
70009;BME280;59542;37.950;-122.338;2023-04-01T22:39:20;102112.97;;;19.23;44.05
70009;BME280;59542;37.950;-122.338;2023-04-01T22:52:41;102102.63;;;19.56;44.29
70009;BME280;59542;37.950;-122.338;2023-04-01T22:55:29;102094.09;;;19.40;45.69
70009;BME280;59542;37.950;-122.338;2023-04-01T22:58:08;102095.22;;;19.74;44.10
70009;BME280;59542;37.950;-122.338;2023-04-01T23:00:40;102081.88;;;19.73;42.66
70009;BME280;59542;37.950;-122.338;2023-04-01T23:06:01;102072.16;;;20.00;42.34
70009;BME280;59542;37.950;-122.338;2023-04-01T23:11:20;102075.22;;;19.92;42.55
70009;BME280;59542;37.950;-122.338;2023-04-01T23:16:41;102070.41;;;19.83;42.23
70009;BME280;59542;37.950;-122.338;2023-04-01T23:19:29;102070.63;;;20.04;41.96
70009;BME280;59542;37.950;-122.338;2023-04-01T23:22:06;102068.44;;;19.13;44.12
70009;BME280;59542;37.950;-122.338;2023-04-01T23:24:49;102071.56;;;19.51;43.47
70009;BME280;59542;37.950;-122.338;2023-04-01T23:27:39;102068.38;;;19.90;42.49
70009;BME280;59542;37.950;-122.338;2023-04-01T23:33:34;102067.31;;;19.44;42.75
70009;BME280;59542;37.950;-122.338;2023-04-01T23:36:02;102070.84;;;19.33;43.44
70009;BME280;59542;37.950;-122.338;2023-04-01T23:38:39;102068.25;;;19.38;44.03
70009;BME280;59542;37.950;-122.338;2023-04-01T23:41:16;102066.41;;;19.62;44.03
70009;BME280;59542;37.950;-122.338;2023-04-01T23:43:43;102081.59;;;19.28;43.06
70009;BME280;59542;37.950;-122.338;2023-04-01T23:46:12;102068.47;;;19.24;43.38
70009;BME280;59542;37.950;-122.338;2023-04-01T23:48:45;102071.53;;;18.75;47.34
70009;BME280;59542;37.950;-122.338;2023-04-01T23:51:37;102074.25;;;18.75;46.52
70009;BME280;59542;37.950;-122.338;2023-04-01T23:54:18;102070.91;;;19.14;46.62
70009;BME280;59542;37.950;-122.338;2023-04-01T23:56:48;102072.69;;;17.75;47.78
70009;BME280;59542;37.950;-122.338;2023-04-01T23:59:29;102058.91;;;18.32;47.37
